Time;durP1;ratioP1;P1;durP2;ratioP2;P2;SDS_P1;SDS_P2;PMS_P1;PMS_P2;Temp;Humidity;BMP_temperature;BMP_pressure;BME280_temperature;BME280_humidity;BME280_pressure;Samples;Min_cycle;Max_cycle;Signal;HPM_P1;HPM_P2
2022/03/02 00:00:38;;;;;;;51.35;39.97;;;5.60;99.90;;;;;;4903540;28;91095;-31
2022/03/02 00:03:04;;;;;;;49.03;39.05;;;5.60;99.90;;;;;;4921714;28;89502;-31
2022/03/02 00:05:30;;;;;;;54.83;39.92;;;5.60;99.90;;;;;;4944195;22;88216;-32
2022/03/02 00:07:56;;;;;;;45.45;37.95;;;5.60;99.90;;;;;;4901833;28;90415;-35
2022/03/02 00:10:22;;;;;;;48.30;39.65;;;5.60;99.90;;;;;;4902047;28;89866;-31
2022/03/02 00:12:47;;;;;;;50.25;39.72;;;5.50;99.90;;;;;;4901550;28;89886;-32
2022/03/02 00:15:13;;;;;;;46.72;37.85;;;5.50;99.90;;;;;;4901461;28;88464;-31
2022/03/02 00:17:39;;;;;;;50.13;39.85;;;5.50;99.90;;;;;;4902005;28;91541;-29
2022/03/02 00:20:05;;;;;;;45.88;38.40;;;5.50;99.90;;;;;;4901115;28;89554;-31
2022/03/02 00:22:31;;;;;;;57.70;37.75;;;5.50;99.90;;;;;;4901881;28;89506;-30
2022/03/02 00:24:57;;;;;;;44.65;36.85;;;5.50;99.90;;;;;;4902139;28;87787;-32
2022/03/02 00:27:23;;;;;;;48.30;39.92;;;5.50;99.90;;;;;;4901039;28;91083;-29
2022/03/02 00:29:49;;;;;;;49.17;36.90;;;5.40;99.90;;;;;;4901870;28;89706;-32
2022/03/02 00:32:15;;;;;;;48.50;37.75;;;5.50;99.90;;;;;;4900991;28;89790;-33
2022/03/02 00:34:41;;;;;;;53.95;40.35;;;5.40;99.90;;;;;;4901874;28;89055;-33
2022/03/02 00:37:06;;;;;;;49.20;38.42;;;5.40;99.90;;;;;;4901266;28;90220;-32
2022/03/02 00:39:33;;;;;;;48.63;37.50;;;5.40;99.90;;;;;;4900939;28;90462;-33
2022/03/02 00:41:59;;;;;;;52.67;40.92;;;5.40;99.90;;;;;;4901289;28;90767;-32
2022/03/02 00:44:24;;;;;;;62.03;42.20;;;5.40;99.90;;;;;;4900892;28;88695;-32
2022/03/02 00:46:50;;;;;;;49.97;38.28;;;5.40;99.90;;;;;;4901757;28;90273;-32
2022/03/02 00:49:16;;;;;;;49.65;38.25;;;5.40;99.90;;;;;;4901035;28;90817;-33
2022/03/02 00:51:42;;;;;;;54.13;40.13;;;5.40;99.90;;;;;;4901716;28;88250;-31
2022/03/02 00:54:09;;;;;;;53.05;38.67;;;5.40;99.90;;;;;;4901668;28;89706;-31
2022/03/02 00:56:34;;;;;;;46.78;39.05;;;5.30;99.90;;;;;;4900824;28;89030;-31
2022/03/02 00:59:00;;;;;;;53.65;40.22;;;5.30;99.90;;;;;;4901583;28;88802;-33
2022/03/02 01:01:25;;;;;;;49.22;39.92;;;5.30;99.90;;;;;;4901393;28;89635;-31
2022/03/02 01:03:51;;;;;;;54.35;40.92;;;5.20;99.90;;;;;;4900776;28;89172;-31
2022/03/02 01:06:17;;;;;;;48.88;39.08;;;5.20;99.90;;;;;;4900089;28;90073;-32
2022/03/02 01:08:43;;;;;;;50.30;38.85;;;5.20;99.90;;;;;;4900772;28;89813;-31
2022/03/02 01:11:09;;;;;;;51.60;40.85;;;5.20;99.90;;;;;;4901759;28;90299;-30
2022/03/02 01:13:35;;;;;;;51.50;40.78;;;5.20;99.90;;;;;;4901054;28;89867;-30
2022/03/02 01:16:01;;;;;;;55.63;40.88;;;5.20;99.90;;;;;;4900680;28;90142;-35
2022/03/02 01:18:26;;;;;;;52.17;39.58;;;5.10;99.90;;;;;;4900039;28;89709;-33
2022/03/02 01:20:52;;;;;;;52.42;41.65;;;5.10;99.90;;;;;;4900750;28;88678;-34
2022/03/02 01:23:17;;;;;;;48.78;39.97;;;5.10;99.90;;;;;;4901284;28;88862;-30
2022/03/02 01:25:43;;;;;;;49.83;40.92;;;5.10;99.90;;;;;;4900557;28;91073;-29
2022/03/02 01:28:09;;;;;;;53.58;38.22;;;5.10;99.90;;;;;;4900127;28;90401;-35
2022/03/02 01:30:34;;;;;;;49.65;37.58;;;5.00;99.90;;;;;;4899969;28;90541;-33
2022/03/02 01:33:00;;;;;;;56.65;39.67;;;5.00;99.90;;;;;;4901141;28;89439;-37
2022/03/02 01:35:26;;;;;;;55.35;40.80;;;5.00;99.90;;;;;;4883571;28;90351;-30
2022/03/02 01:37:51;;;;;;;48.55;39.30;;;5.00;99.90;;;;;;4900053;28;89661;-33
2022/03/02 01:40:17;;;;;;;49.95;37.38;;;5.00;99.90;;;;;;4900815;28;89461;-29
2022/03/02 01:42:43;;;;;;;50.05;39.45;;;4.90;99.90;;;;;;4882812;28;89707;-32
2022/03/02 01:45:12;;;;;;;55.63;39.63;;;4.90;99.90;;;;;;4901236;28;89992;-35
2022/03/02 01:47:38;;;;;;;48.50;38.60;;;4.90;99.90;;;;;;4901184;28;89822;-31
2022/03/02 01:50:05;;;;;;;46.42;38.28;;;4.90;99.90;;;;;;4900210;28;89703;-31
2022/03/02 01:52:31;;;;;;;54.92;38.08;;;4.90;99.90;;;;;;4899575;28;89144;-33
2022/03/02 01:54:57;;;;;;;56.88;42.17;;;4.90;99.90;;;;;;4900710;28;90015;-31
2022/03/02 01:57:22;;;;;;;53.08;41.42;;;4.90;99.90;;;;;;4900116;28;88565;-31
2022/03/02 01:59:49;;;;;;;50.47;40.17;;;4.90;99.90;;;;;;4900943;28;90174;-34
2022/03/02 02:02:14;;;;;;;54.10;40.42;;;4.90;99.90;;;;;;4900698;28;88273;-30
2022/03/02 02:04:40;;;;;;;59.85;43.53;;;4.80;99.90;;;;;;4899662;28;90701;-35
2022/03/02 02:07:06;;;;;;;51.65;39.10;;;4.80;99.90;;;;;;4900543;28;90154;-31
2022/03/02 02:09:32;;;;;;;48.15;39.60;;;4.80;99.90;;;;;;4902936;28;90191;-30
2022/03/02 02:11:57;;;;;;;53.85;39.88;;;4.80;99.90;;;;;;4904377;28;89668;-34
2022/03/02 02:14:23;;;;;;;55.00;40.58;;;4.80;99.90;;;;;;4903342;28;90107;-31
2022/03/02 02:16:49;;;;;;;54.58;40.47;;;4.70;99.90;;;;;;4902750;28;90736;-35
2022/03/02 02:19:15;;;;;;;55.42;42.13;;;4.70;99.90;;;;;;4903149;28;90906;-29
2022/03/02 02:21:40;;;;;;;51.08;40.10;;;4.70;99.90;;;;;;4903659;28;88371;-33
2022/03/02 02:24:06;;;;;;;51.92;39.85;;;4.70;99.90;;;;;;4904315;28;90450;-30
2022/03/02 02:26:32;;;;;;;59.95;42.17;;;4.70;99.90;;;;;;4903087;28;89296;-32
2022/03/02 02:28:58;;;;;;;51.97;40.80;;;4.70;99.90;;;;;;4903665;28;90402;-30
2022/03/02 02:31:25;;;;;;;54.65;40.88;;;4.70;99.90;;;;;;4903712;28;88966;-33
2022/03/02 02:33:51;;;;;;;54.28;40.20;;;4.70;99.90;;;;;;4903349;28;90389;-30
2022/03/02 02:36:18;;;;;;;51.00;41.75;;;4.70;99.90;;;;;;4902927;28;89752;-31
2022/03/02 02:38:44;;;;;;;57.35;40.63;;;4.70;99.90;;;;;;4903101;28;89001;-31
2022/03/02 02:41:10;;;;;;;57.92;42.90;;;4.70;99.90;;;;;;4902901;28;90125;-30
2022/03/02 02:43:37;;;;;;;54.38;41.90;;;4.70;99.90;;;;;;4902990;28;90708;-34
2022/03/02 02:46:03;;;;;;;53.63;40.67;;;4.70;99.90;;;;;;4903420;28;89778;-33
2022/03/02 02:48:29;;;;;;;55.72;41.78;;;4.70;99.90;;;;;;4902413;28;89631;-30
2022/03/02 02:50:55;;;;;;;55.85;41.22;;;4.70;99.90;;;;;;4903710;28;90263;-30
2022/03/02 02:53:20;;;;;;;60.65;41.13;;;4.70;99.90;;;;;;4902679;28;90439;-30
2022/03/02 02:55:47;;;;;;;57.40;41.83;;;4.60;99.90;;;;;;4903009;28;89680;-30
2022/03/02 02:58:13;;;;;;;54.35;41.78;;;4.70;99.90;;;;;;4903992;28;89188;-30
2022/03/02 03:00:43;;;;;;;58.22;43.33;;;4.70;99.90;;;;;;4902882;28;88762;-34
2022/03/02 03:03:08;;;;;;;56.80;44.33;;;4.70;99.90;;;;;;4902725;28;90325;-33
2022/03/02 03:05:35;;;;;;;54.50;42.78;;;4.70;99.90;;;;;;4902004;28;90731;-35
2022/03/02 03:08:03;;;;;;;54.72;39.55;;;4.60;99.90;;;;;;4903146;28;90702;-33
2022/03/02 03:10:28;;;;;;;53.80;40.72;;;4.60;99.90;;;;;;4885122;28;88012;-32
2022/03/02 03:12:54;;;;;;;60.42;42.78;;;4.60;99.90;;;;;;4902891;28;89294;-30
2022/03/02 03:15:21;;;;;;;57.22;43.47;;;4.70;99.90;;;;;;4903094;28;89950;-29
2022/03/02 03:17:48;;;;;;;55.72;43.17;;;4.60;99.90;;;;;;4902604;28;89861;-31
2022/03/02 03:20:17;;;;;;;62.50;43.70;;;4.60;99.90;;;;;;4901874;28;88712;-30
2022/03/02 03:22:43;;;;;;;57.63;41.50;;;4.60;99.90;;;;;;4902842;28;90166;-34
2022/03/02 03:25:09;;;;;;;59.80;43.90;;;4.60;99.90;;;;;;4903002;28;89735;-30
2022/03/02 03:27:36;;;;;;;63.35;43.50;;;4.50;99.90;;;;;;4902534;28;89533;-30
2022/03/02 03:30:05;;;;;;;56.97;42.30;;;4.50;99.90;;;;;;4902572;28;90321;-33
2022/03/02 03:32:30;;;;;;;;;;;4.60;99.90;;;;;;4902554;28;90206;-34
2022/03/02 03:34:56;;;;;;;61.30;43.80;;;4.50;99.90;;;;;;4904834;28;90340;-34
2022/03/02 03:37:22;;;;;;;56.70;43.17;;;4.50;99.90;;;;;;4902745;28;89249;-31
2022/03/02 03:39:48;;;;;;;55.80;46.38;;;4.50;99.90;;;;;;4903423;28;87680;-29
2022/03/02 03:42:13;;;;;;;58.65;43.67;;;4.50;99.90;;;;;;4902409;28;90246;-31
2022/03/02 03:44:39;;;;;;;55.50;43.20;;;4.50;99.90;;;;;;4902737;28;90042;-30
2022/03/02 03:47:06;;;;;;;56.30;45.67;;;4.40;99.90;;;;;;4902066;28;89536;-32
2022/03/02 03:49:31;;;;;;;58.67;44.10;;;4.40;99.90;;;;;;4902365;28;88810;-31
2022/03/02 03:51:57;;;;;;;59.30;43.55;;;4.40;99.90;;;;;;4902694;28;89950;-33
2022/03/02 03:54:23;;;;;;;56.55;42.88;;;4.40;99.90;;;;;;4900683;28;90545;-29
2022/03/02 03:56:48;;;;;;;58.60;45.72;;;4.40;99.90;;;;;;4902111;28;89530;-33
2022/03/02 03:59:14;;;;;;;52.42;43.05;;;4.40;99.90;;;;;;4901973;28;87429;-32
2022/03/02 04:01:39;;;;;;;59.60;43.78;;;4.30;99.90;;;;;;4902297;28;91095;-30
2022/03/02 04:04:05;;;;;;;62.97;44.88;;;4.30;99.90;;;;;;4902415;28;89906;-30
2022/03/02 04:06:31;;;;;;;59.40;44.35;;;4.30;99.90;;;;;;4901793;28;89285;-31
2022/03/02 04:08:57;;;;;;;60.50;43.63;;;4.30;99.90;;;;;;4902403;28;89117;-30
2022/03/02 04:11:22;;;;;;;56.20;43.50;;;4.30;99.90;;;;;;4901565;28;90186;-29
2022/03/02 04:13:48;;;;;;;60.53;45.38;;;4.30;99.90;;;;;;4902448;28;89169;-32
2022/03/02 04:16:14;;;;;;;66.35;44.90;;;4.30;99.90;;;;;;4901454;28;89917;-30
2022/03/02 04:18:39;;;;;;;60.10;45.50;;;4.30;99.90;;;;;;4901238;28;90389;-33
2022/03/02 04:21:05;;;;;;;54.25;42.95;;;4.30;99.90;;;;;;4902242;28;91006;-31
2022/03/02 04:23:30;;;;;;;64.85;44.50;;;4.40;99.90;;;;;;4901349;28;89623;-31
2022/03/02 04:25:56;;;;;;;57.90;46.33;;;4.30;99.90;;;;;;4902368;28;90266;-29
2022/03/02 04:28:22;;;;;;;63.67;44.85;;;4.40;99.90;;;;;;4900876;28;89665;-30
2022/03/02 04:30:47;;;;;;;56.05;41.75;;;4.40;99.90;;;;;;4901972;28;90402;-33
2022/03/02 04:33:13;;;;;;;60.63;44.10;;;4.40;99.90;;;;;;4900177;28;89534;-34
2022/03/02 04:35:40;;;;;;;55.97;43.55;;;4.40;99.90;;;;;;4902269;28;89480;-31
2022/03/02 04:38:06;;;;;;;50.85;43.80;;;4.40;99.90;;;;;;4901975;28;88713;-32
2022/03/02 04:40:32;;;;;;;61.05;45.13;;;4.40;99.90;;;;;;4901269;28;90321;-32
2022/03/02 04:42:58;;;;;;;62.85;45.95;;;4.40;99.90;;;;;;4900674;28;90609;-33
2022/03/02 04:45:27;;;;;;;61.70;44.92;;;4.40;99.90;;;;;;4901702;28;91216;-32
2022/03/02 04:47:57;;;;;;;61.70;46.47;;;4.40;99.90;;;;;;4902037;28;89972;-30
2022/03/02 04:50:24;;;;;;;61.88;45.67;;;4.40;99.90;;;;;;4900879;28;91371;-31
2022/03/02 04:52:50;;;;;;;54.40;43.78;;;4.30;99.90;;;;;;4900443;28;89912;-31
2022/03/02 04:55:17;;;;;;;59.80;43.97;;;4.40;99.90;;;;;;4901473;28;88470;-29
2022/03/02 04:57:53;;;;;;;60.50;44.70;;;4.30;99.90;;;;;;4901632;28;90195;-32
2022/03/02 05:00:21;;;;;;;60.83;47.13;;;4.30;99.90;;;;;;4901416;28;90179;-29
2022/03/02 05:02:47;;;;;;;63.58;47.13;;;4.30;99.90;;;;;;4900675;28;88968;-33
2022/03/02 05:05:16;;;;;;;61.35;45.75;;;4.30;99.90;;;;;;4900126;28;89660;-32
2022/03/02 05:07:42;;;;;;;64.47;46.30;;;4.30;99.90;;;;;;4901256;28;89885;-30
2022/03/02 05:10:09;;;;;;;63.78;46.88;;;4.30;99.90;;;;;;4901381;28;90588;-29
2022/03/02 05:12:35;;;;;;;62.70;44.08;;;4.30;99.90;;;;;;4901513;28;89620;-33
2022/03/02 05:15:01;;;;;;;58.13;44.45;;;4.30;99.90;;;;;;4901509;28;90319;-29
2022/03/02 05:17:26;;;;;;;58.78;46.83;;;4.30;99.90;;;;;;4900221;28;87672;-31
2022/03/02 05:19:52;;;;;;;58.28;44.83;;;4.30;99.90;;;;;;4901146;28;90576;-32
2022/03/02 05:22:18;;;;;;;61.83;44.78;;;4.30;99.90;;;;;;4900309;28;89538;-31
2022/03/02 05:24:43;;;;;;;63.78;47.17;;;4.20;99.90;;;;;;4901764;28;89614;-30
2022/03/02 05:27:09;;;;;;;58.75;46.75;;;4.30;99.90;;;;;;4901137;28;90059;-32
2022/03/02 05:29:35;;;;;;;65.60;45.70;;;4.30;99.90;;;;;;4900246;28;91247;-34
2022/03/02 05:32:02;;;;;;;56.20;42.20;;;4.20;99.90;;;;;;4900488;28;90709;-31
2022/03/02 05:34:27;;;;;;;60.10;44.75;;;4.20;99.90;;;;;;4900175;28;90412;-30
2022/03/02 05:36:53;;;;;;;58.03;42.60;;;4.20;99.90;;;;;;4901347;28;90608;-30
2022/03/02 05:39:18;;;;;;;61.83;45.17;;;4.20;99.90;;;;;;4900455;28;90283;-31
2022/03/02 05:41:44;;;;;;;62.67;44.85;;;4.20;99.90;;;;;;4900903;28;91440;-29
2022/03/02 05:44:11;;;;;;;59.85;44.42;;;4.20;99.90;;;;;;4904963;28;89636;-32
2022/03/02 05:46:37;;;;;;;57.55;40.70;;;4.30;99.90;;;;;;4906758;28;88448;-34
2022/03/02 05:49:04;;;;;;;60.63;45.47;;;4.20;99.90;;;;;;4906924;28;90889;-30
2022/03/02 05:51:30;;;;;;;60.55;43.28;;;4.30;99.90;;;;;;4907022;28;90121;-33
2022/03/02 05:54:00;;;;;;;52.20;40.47;;;4.30;99.90;;;;;;4906478;28;89145;-32
2022/03/02 05:56:26;;;;;;;53.28;41.47;;;4.30;99.90;;;;;;4906251;28;89688;-32
2022/03/02 05:58:52;;;;;;;56.35;42.03;;;4.20;99.90;;;;;;4907429;28;88902;-32
2022/03/02 06:01:18;;;;;;;56.63;43.17;;;4.20;99.90;;;;;;4907446;28;90680;-30
2022/03/02 06:03:44;;;;;;;52.95;39.80;;;4.20;99.90;;;;;;4906797;28;89605;-29
2022/03/02 06:06:11;;;;;;;66.53;42.45;;;4.20;99.90;;;;;;4906911;28;88150;-36
2022/03/02 06:08:36;;;;;;;52.50;41.53;;;4.20;99.90;;;;;;4906413;28;90458;-31
2022/03/02 06:11:02;;;;;;;58.17;43.40;;;4.20;99.90;;;;;;4906488;28;89938;-33
2022/03/02 06:13:29;;;;;;;56.83;41.45;;;4.10;99.90;;;;;;4906924;28;89417;-31
2022/03/02 06:15:57;;;;;;;56.70;42.17;;;4.10;99.90;;;;;;4906235;28;88759;-34
2022/03/02 06:18:23;;;;;;;66.23;45.43;;;4.10;99.90;;;;;;4905880;28;89166;-30
2022/03/02 06:20:51;;;;;;;53.67;41.95;;;4.10;99.90;;;;;;4906829;28;90326;-34
2022/03/02 06:23:18;;;;;;;56.28;41.53;;;4.00;99.90;;;;;;4906492;28;89256;-30
2022/03/02 06:25:44;;;;;;;63.03;46.03;;;4.00;99.90;;;;;;4907277;28;89725;-30
2022/03/02 06:28:10;;;;;;;57.72;42.92;;;4.00;99.90;;;;;;4906623;28;90274;-29
2022/03/02 06:30:36;;;;;;;57.28;42.75;;;4.00;99.90;;;;;;4906752;28;89803;-30
2022/03/02 06:33:02;;;;;;;52.05;41.22;;;3.90;99.90;;;;;;4905582;28;89293;-31
2022/03/02 06:35:27;;;;;;;54.95;42.97;;;3.90;99.90;;;;;;4907095;28;89177;-32
2022/03/02 06:37:53;;;;;;;64.10;43.80;;;3.90;99.90;;;;;;4906755;28;89394;-33
2022/03/02 06:40:19;;;;;;;57.63;43.28;;;3.90;99.90;;;;;;4906635;28;89564;-34
2022/03/02 06:42:44;;;;;;;55.72;43.53;;;3.90;99.90;;;;;;4906358;28;89248;-31
2022/03/02 06:45:22;;;;;;;54.20;40.97;;;3.90;99.90;;;;;;4905506;28;89832;-33
2022/03/02 06:47:57;;;;;;;49.55;40.90;;;3.80;99.90;;;;;;4906485;28;90445;-32
2022/03/02 06:50:30;;;;;;;62.38;43.42;;;3.80;99.90;;;;;;4906414;28;89824;-30
2022/03/02 06:53:01;;;;;;;63.25;45.40;;;3.80;99.90;;;;;;4906711;28;89239;-34
2022/03/02 06:55:30;;;;;;;56.05;40.97;;;3.80;99.90;;;;;;4902957;28;89049;-32
2022/03/02 06:57:57;;;;;;;57.60;42.70;;;3.70;99.90;;;;;;4886409;28;90407;-34
2022/03/02 07:00:25;;;;;;;54.22;44.58;;;3.70;99.90;;;;;;4903400;28;89119;-33
2022/03/02 07:03:09;;;;;;;58.43;41.63;;;3.70;99.90;;;;;;4903802;28;89498;-30
2022/03/02 07:05:36;;;;;;;52.53;41.80;;;3.60;99.90;;;;;;4902210;28;88612;-31
2022/03/02 07:08:05;;;;;;;60.08;44.42;;;3.60;99.90;;;;;;4903001;28;90537;-32
2022/03/02 07:10:33;;;;;;;59.83;42.95;;;3.70;99.90;;;;;;4902526;28;91045;-32
2022/03/02 07:13:01;;;;;;;58.78;44.10;;;3.70;99.90;;;;;;4903563;28;90449;-31
2022/03/02 07:15:27;;;;;;;;;;;3.70;99.90;;;;;;4902888;28;88684;-32
2022/03/02 07:17:53;;;;;;;59.80;44.33;;;3.70;99.90;;;;;;4904541;28;90619;-32
2022/03/02 07:20:19;;;;;;;59.95;43.85;;;3.70;99.90;;;;;;4902708;28;88699;-30
2022/03/02 07:22:54;;;;;;;50.33;42.13;;;3.60;99.90;;;;;;4902760;28;90140;-28
2022/03/02 07:25:24;;;;;;;52.13;42.97;;;3.70;99.90;;;;;;4903465;28;89165;-34
2022/03/02 07:27:50;;;;;;;56.00;44.15;;;3.60;99.90;;;;;;4902535;28;90101;-32
2022/03/02 07:30:16;;;;;;;56.38;44.33;;;3.60;99.90;;;;;;4901958;28;91292;-31
2022/03/02 07:32:45;;;;;;;60.72;46.15;;;3.60;99.90;;;;;;4902309;28;90481;-33
2022/03/02 07:35:12;;;;;;;53.65;42.70;;;3.70;99.90;;;;;;4902243;28;90344;-35
2022/03/02 07:37:39;;;;;;;56.65;44.97;;;3.70;99.90;;;;;;4903307;28;90978;-32
2022/03/02 07:40:06;;;;;;;58.60;44.22;;;3.80;99.90;;;;;;4902470;28;89335;-33
2022/03/02 07:42:33;;;;;;;64.28;45.50;;;3.90;99.90;;;;;;4901786;28;88523;-30
2022/03/02 07:44:59;;;;;;;52.97;41.13;;;4.00;99.90;;;;;;4902597;28;88395;-32
2022/03/02 07:47:25;;;;;;;61.42;44.65;;;4.00;99.90;;;;;;4902205;28;90423;-30
2022/03/02 07:49:51;;;;;;;57.85;41.58;;;4.10;99.90;;;;;;4902066;28;89363;-35
2022/03/02 07:52:17;;;;;;;61.33;45.17;;;4.20;99.90;;;;;;4902409;28;89900;-30
2022/03/02 07:54:44;;;;;;;54.63;40.63;;;4.30;99.90;;;;;;4902361;28;89029;-32
2022/03/02 07:57:13;;;;;;;55.53;43.10;;;4.40;99.90;;;;;;4902150;28;90248;-32
2022/03/02 07:59:43;;;;;;;54.95;42.28;;;4.50;99.90;;;;;;4884432;28;90694;-34
2022/03/02 08:02:11;;;;;;;59.10;41.58;;;4.60;99.90;;;;;;4902579;28;89534;-30
2022/03/02 08:04:40;;;;;;;67.38;46.10;;;4.60;99.90;;;;;;4902858;28;88802;-31
2022/03/02 08:07:06;;;;;;;55.28;41.28;;;4.60;99.90;;;;;;4901814;28;91760;-33
2022/03/02 08:09:34;;;;;;;48.50;39.50;;;4.70;99.90;;;;;;4901263;28;89847;-32
2022/03/02 08:12:01;;;;;;;54.70;42.05;;;4.80;99.90;;;;;;4902671;28;89714;-31
2022/03/02 08:14:27;;;;;;;53.28;42.05;;;4.80;99.90;;;;;;4901767;28;89781;-35
2022/03/02 08:16:54;;;;;;;51.88;39.05;;;4.80;99.90;;;;;;4902349;28;90234;-32
2022/03/02 08:19:20;;;;;;;52.38;37.45;;;5.00;99.90;;;;;;4901745;28;89324;-31
2022/03/02 08:21:51;;;;;;;51.58;37.22;;;5.00;99.90;;;;;;4902225;28;89160;-34
2022/03/02 08:24:18;;;;;;;55.30;43.08;;;5.00;99.90;;;;;;4900735;28;90588;-33
2022/03/02 08:26:48;;;;;;;55.85;40.55;;;5.10;99.90;;;;;;4902306;28;90685;-29
2022/03/02 08:29:14;;;;;;;49.00;40.58;;;5.10;99.90;;;;;;4902420;28;90619;-31
2022/03/02 08:31:42;;;;;;;56.70;41.22;;;5.30;99.90;;;;;;4902181;28;90019;-32
2022/03/02 08:34:09;;;;;;;51.55;37.78;;;5.50;99.90;;;;;;4783239;28;87888;-31
2022/03/02 08:36:36;;;;;;;53.30;36.42;;;5.60;99.90;;;;;;4896474;28;90281;-31
2022/03/02 08:39:07;;;;;;;54.08;39.28;;;5.70;99.90;;;;;;4902152;28;89958;-31
2022/03/02 08:41:34;;;;;;;43.88;35.47;;;5.80;99.90;;;;;;4902402;28;90605;-32
2022/03/02 08:43:59;;;;;;;45.53;34.78;;;5.90;99.90;;;;;;4901780;28;89274;-31
2022/03/02 08:46:26;;;;;;;44.92;37.13;;;6.00;99.90;;;;;;4901453;28;90285;-32
2022/03/02 08:48:53;;;;;;;49.25;34.70;;;6.10;99.90;;;;;;4900528;28;90729;-33
2022/03/02 08:51:23;;;;;;;52.92;38.80;;;6.10;99.90;;;;;;4899717;28;89646;-30
2022/03/02 08:53:54;;;;;;;45.28;34.60;;;6.10;99.90;;;;;;4899905;28;88140;-30
2022/03/02 08:56:21;;;;;;;38.50;32.30;;;6.20;99.90;;;;;;4899014;28;90915;-31
2022/03/02 08:58:46;;;;;;;50.85;35.15;;;6.30;99.90;;;;;;4881676;28;90099;-32
2022/03/02 09:01:14;;;;;;;50.25;35.53;;;6.40;99.90;;;;;;4899344;28;89306;-30
2022/03/02 09:03:46;;;;;;;44.83;35.80;;;6.40;99.90;;;;;;4882678;28;89238;-33
2022/03/02 09:06:13;;;;;;;45.63;33.85;;;6.50;99.90;;;;;;4903221;28;89092;-34
2022/03/02 09:08:39;;;;;;;49.42;34.58;;;6.60;99.90;;;;;;4898379;28;89773;-31
2022/03/02 09:11:07;;;;;;;45.88;36.25;;;6.60;99.90;;;;;;4898208;28;89563;-35
2022/03/02 09:13:32;;;;;;;46.95;35.60;;;6.70;99.90;;;;;;4898179;28;88726;-30
2022/03/02 09:15:58;;;;;;;48.30;35.22;;;6.80;99.90;;;;;;4899116;28;91662;-34
2022/03/02 09:18:23;;;;;;;52.47;36.15;;;6.80;99.90;;;;;;4897956;28;89600;-32
2022/03/02 09:20:55;;;;;;;48.17;34.05;;;6.90;99.90;;;;;;4898683;28;89991;-34
2022/03/02 09:23:27;;;;;;;46.45;32.65;;;7.00;99.90;;;;;;4898136;28;88602;-34
2022/03/02 09:25:56;;;;;;;44.70;36.20;;;7.10;99.90;;;;;;4898504;28;89266;-33
2022/03/02 09:28:25;;;;;;;45.53;33.25;;;7.10;99.90;;;;;;4898241;28;89852;-29
2022/03/02 09:30:52;;;;;;;44.35;32.45;;;7.10;99.90;;;;;;4897093;28;90687;-30
2022/03/02 09:33:21;;;;;;;46.27;36.37;;;7.20;99.90;;;;;;4898116;28;89984;-33
2022/03/02 09:35:46;;;;;;;48.15;36.15;;;7.30;99.90;;;;;;4898473;28;90257;-30
2022/03/02 09:38:12;;;;;;;40.20;31.70;;;7.40;99.90;;;;;;4895814;28;91956;-34
2022/03/02 09:40:43;;;;;;;40.65;30.30;;;7.50;99.90;;;;;;4898653;28;90526;-34
2022/03/02 09:43:16;;;;;;;41.10;29.25;;;7.60;99.90;;;;;;4881652;28;88686;-33
2022/03/02 09:45:42;;;;;;;38.35;29.83;;;7.60;99.90;;;;;;4898472;28;90810;-33
2022/03/02 09:48:15;;;;;;;43.13;31.80;;;7.70;99.90;;;;;;4898252;28;89670;-32
2022/03/02 09:50:41;;;;;;;39.17;31.60;;;7.80;99.90;;;;;;4898729;28;90264;-31
2022/03/02 09:53:13;;;;;;;39.92;31.40;;;7.80;99.90;;;;;;4898581;28;89551;-36
2022/03/02 09:55:40;;;;;;;34.67;30.02;;;7.90;99.90;;;;;;4897906;28;90316;-31
2022/03/02 09:58:06;;;;;;;36.85;25.70;;;8.00;99.90;;;;;;4880816;28;90378;-33
2022/03/02 10:00:32;;;;;;;36.63;30.75;;;8.10;99.90;;;;;;4898577;28;89590;-34
2022/03/02 10:02:59;;;;;;;39.30;30.00;;;8.10;99.90;;;;;;4898217;28;88840;-32
2022/03/02 10:05:27;;;;;;;40.45;30.20;;;8.20;99.90;;;;;;4897463;28;90048;-32
2022/03/02 10:08:01;;;;;;;38.77;29.47;;;8.20;99.90;;;;;;4898501;28;90271;-34
2022/03/02 10:10:33;;;;;;;37.03;28.92;;;8.30;99.90;;;;;;4897248;28;89267;-32
2022/03/02 10:13:02;;;;;;;38.15;27.67;;;8.40;99.90;;;;;;4898336;28;88452;-31
2022/03/02 10:15:29;;;;;;;37.45;28.67;;;8.60;99.90;;;;;;4898106;28;90513;-32
2022/03/02 10:17:58;;;;;;;33.15;28.92;;;8.60;99.90;;;;;;4898083;28;89576;-31
2022/03/02 10:20:27;;;;;;;35.33;25.58;;;8.70;99.90;;;;;;4897953;28;89515;-30
2022/03/02 10:23:01;;;;;;;38.20;26.77;;;8.80;93.20;;;;;;4897748;28;87993;-32
2022/03/02 10:25:36;;;;;;;35.05;27.42;;;8.90;90.60;;;;;;4897871;28;90563;-31
2022/03/02 10:28:04;;;;;;;29.48;24.83;;;8.80;90.40;;;;;;4879356;28;91393;-31
2022/03/02 10:30:33;;;;;;;31.50;21.73;;;8.90;91.10;;;;;;4899078;28;90595;-34
2022/03/02 10:33:21;;;;;;;31.27;23.17;;;9.00;88.50;;;;;;4901938;28;90220;-32
2022/03/02 10:36:09;;;;;;;35.15;25.30;;;9.10;79.10;;;;;;4901085;28;90882;-35
2022/03/02 10:39:03;;;;;;;37.67;27.38;;;9.10;83.20;;;;;;4901606;28;89850;-30
2022/03/02 10:41:32;;;;;;;35.38;27.30;;;9.10;90.90;;;;;;4900761;28;90765;-31
2022/03/02 10:44:05;;;;;;;39.10;26.13;;;9.20;88.70;;;;;;4901098;28;88159;-31
2022/03/02 10:46:32;;;;;;;32.88;25.83;;;9.20;95.00;;;;;;4884117;28;90271;-32
2022/03/02 10:49:20;;;;;;;28.33;24.08;;;9.30;90.10;;;;;;4900435;28;89628;-31
2022/03/02 10:51:46;;;;;;;37.10;27.27;;;9.40;80.10;;;;;;4900778;28;89825;-34
2022/03/02 10:54:21;;;;;;;31.98;25.15;;;9.40;77.50;;;;;;4900065;28;89832;-33
2022/03/02 10:56:54;;;;;;;35.53;29.95;;;9.50;76.40;;;;;;4900712;28;90298;-31
2022/03/02 10:59:25;;;;;;;41.25;28.83;;;9.50;82.40;;;;;;4900328;28;89744;-32
2022/03/02 11:01:53;;;;;;;31.38;25.30;;;9.40;96.10;;;;;;4900247;28;89180;-32
2022/03/02 11:04:21;;;;;;;35.50;27.13;;;9.40;90.90;;;;;;4901116;28;89235;-35
2022/03/02 11:06:46;;;;;;;32.78;26.98;;;9.30;90.90;;;;;;4900913;28;90186;-32
2022/03/02 11:09:16;;;;;;;35.35;27.75;;;9.40;91.00;;;;;;4899563;28;90145;-30
2022/03/02 11:11:42;;;;;;;36.40;25.85;;;9.60;81.20;;;;;;4900364;28;89370;-33
2022/03/02 11:14:09;;;;;;;34.20;25.65;;;9.60;84.30;;;;;;4900593;28;88545;-32
2022/03/02 11:16:35;;;;;;;34.75;25.75;;;9.60;81.50;;;;;;4883036;28;90283;-31
2022/03/02 11:19:12;;;;;;;34.58;23.80;;;9.70;83.70;;;;;;4900048;28;89913;-32
2022/03/02 11:21:39;;;;;;;37.85;27.33;;;9.70;78.40;;;;;;4899977;28;90477;-31
2022/03/02 11:24:06;;;;;;;34.53;27.75;;;9.70;82.80;;;;;;4901184;28;89058;-33
2022/03/02 11:26:35;;;;;;;39.00;27.00;;;9.70;81.00;;;;;;4900186;28;90320;-31
2022/03/02 11:29:26;;;;;;;31.10;22.65;;;9.60;88.40;;;;;;4900208;28;89506;-32
2022/03/02 11:31:56;;;;;;;31.02;25.35;;;9.70;74.90;;;;;;4901053;28;89413;-32
2022/03/02 11:34:22;;;;;;;39.47;27.10;;;9.70;81.80;;;;;;4900616;28;88515;-33
2022/03/02 11:36:50;;;;;;;38.42;28.95;;;9.70;81.60;;;;;;4899635;28;90731;-32
2022/03/02 11:39:18;;;;;;;28.60;22.98;;;9.70;84.10;;;;;;4899487;28;89834;-34
2022/03/02 11:41:45;;;;;;;34.60;27.00;;;9.80;80.30;;;;;;4899550;28;89373;-33
2022/03/02 11:44:36;;;;;;;32.70;27.00;;;9.80;79.70;;;;;;4899783;28;90565;-34
2022/03/02 11:47:08;;;;;;;37.30;28.45;;;9.80;79.20;;;;;;4899510;28;90198;-31
2022/03/02 11:49:47;;;;;;;30.73;24.13;;;9.80;78.70;;;;;;4898802;28;90481;-31
2022/03/02 11:52:21;;;;;;;32.20;25.58;;;9.80;79.30;;;;;;4887243;28;89609;-31
2022/03/02 11:54:58;;;;;;;31.95;23.42;;;9.90;74.70;;;;;;4898133;28;88066;-31
2022/03/02 11:57:26;;;;;;;32.45;26.65;;;10.00;79.60;;;;;;4900148;28;90291;-30
2022/03/02 12:00:13;;;;;;;32.58;23.70;;;9.90;75.60;;;;;;4899875;28;90404;-32
2022/03/02 12:02:43;;;;;;;36.40;26.13;;;9.90;73.40;;;;;;4899949;28;90455;-34
2022/03/02 12:05:09;;;;;;;28.30;22.95;;;9.90;74.70;;;;;;4940081;22;89027;-31
2022/03/02 12:07:40;;;;;;;31.65;25.60;;;9.90;74.00;;;;;;4938689;28;91975;-35
2022/03/02 12:10:26;;;;;;;31.98;26.00;;;10.00;75.30;;;;;;4937732;28;91223;-32
2022/03/02 12:12:53;;;;;;;35.30;25.02;;;10.10;76.20;;;;;;4938154;28;90998;-34
2022/03/02 12:15:20;;;;;;;34.67;24.83;;;10.00;75.10;;;;;;4937288;28;88390;-32
2022/03/02 12:17:48;;;;;;;50.05;27.42;;;10.00;75.00;;;;;;4937528;28;89560;-33
2022/03/02 12:20:24;;;;;;;31.83;22.77;;;10.00;76.20;;;;;;4937659;28;89550;-31
2022/03/02 12:22:51;;;;;;;32.42;23.05;;;10.10;78.00;;;;;;4938600;28;89694;-35
2022/03/02 12:25:21;;;;;;;39.38;28.90;;;10.10;76.50;;;;;;4938009;28;88256;-31
2022/03/02 12:28:01;;;;;;;30.55;23.83;;;10.10;72.30;;;;;;4938288;28;90407;-31
2022/03/02 12:30:33;;;;;;;34.67;24.63;;;10.20;74.40;;;;;;4938018;28;89724;-34
2022/03/02 12:32:59;;;;;;;27.88;23.25;;;10.10;74.70;;;;;;4938419;28;90456;-31
2022/03/02 12:35:27;;;;;;;35.13;26.50;;;10.10;77.00;;;;;;4936990;28;90723;-31
2022/03/02 12:38:02;;;;;;;33.85;24.75;;;10.20;75.20;;;;;;4937359;28;90324;-33
2022/03/02 12:40:30;;;;;;;33.38;25.50;;;10.30;74.50;;;;;;4937563;28;90085;-32